Friday, November 16, 2018, 1:12 AM GMT
Back to Local

CWGL, Lagoon City

Location: , , Canada Lat: 44.533
Local Time: 1:12 AM GMT ( 1:12 GMT) Lon: -79.217
Time Zone: GMT Elev: 725 ft

Show me the last for .
Show Coded

Time T Td Feel RH Dir Speed Gust Alt SLP Vis Weather Sky Remarks
2018-11-16 00:00 27 26 19 94 100° 8 - - 30.07 0 None
2018-11-15 23:00 26 24 18 90 100° 8 - - 30.09 0 None
2018-11-15 22:00 28 21 19 75 90° 9 - - 30.13 0 None
2018-11-15 21:00 28 21 19 75 100° 9 - - 30.15 0 None
2018-11-15 20:00 29 21 20 70 110° 10 - - 30.20 0 None
2018-11-15 19:00 27 20 14 75 120° 12 21 - 30.21 0 Peak wind: 20 mph (18 kts) from 110° at 53 min
2018-11-15 18:00 27 20 13 75 110° 13 20 - 30.24 0 Peak wind: 21 mph (19 kts) from 110° at 36 min
2018-11-15 17:00 25 19 14 75 110° 13 - - 30.29 0 None
2018-11-15 16:00 24 18 10 78 100° 12 17 - 30.34 0 Peak wind: 19 mph (17 kts) from 90° at 00 min
2018-11-15 15:00 21 16 6 78 110° 14 21 - 30.39 0 Peak wind: 20 mph (18 kts) from 120° at 22 min
2018-11-15 14:00 20 16 7 82 100° 13 - - 30.42 0 None
2018-11-15 13:00 18 13 2 80 100° 15 21 - 30.43 0 Peak wind: 20 mph (18 kts) from 90° at 53 min
2018-11-15 12:00 18 12 5 77 80° 12 - - 30.45 0 None
2018-11-15 11:00 18 11 8 73 70° 8 - - 30.47 0 None
2018-11-15 10:00 17 11 5 75 90° 10 - - 30.47 0 None
2018-11-15 09:00 17 11 5 75 130° 10 - - 30.52 0 None
2018-11-15 08:00 18 10 6 72 110° 10 - - 30.53 0 None
2018-11-15 07:00 18 12 8 77 110° 8 - - 30.53 0 None
2018-11-15 06:00 17 11 7 78 90° 7 - - 30.53 0 None
2018-11-15 05:00 17 12 8 78 100° 7 - - 30.55 0 None
2018-11-15 04:00 19 11 10 72 100° 6 - - 30.55 0 None
2018-11-15 03:00 17 12 9 83 40° 5 - - 30.57 0 None
2018-11-15 02:00 18 13 - 81 70° 2 - - 30.55 0 None

Support USWX by starting your Amazon purchase here.